This is the latest recevied weather packets stored in our database for station/object N9CQS-15. If no packets are shown the sender has not sent any weather packets the latest 10 day(s).
| Time | Temp. | Humidity | Pressure | Rain* | Wind** | Luminosity | Snow |
|---|---|---|---|---|---|---|---|
| 1778113141 | 12.22° C | 52% | 1015.7 hPa | 0 mm | - | - | - |
| 1778112542 | 12.78° C | 54% | 1015.6 hPa | 0 mm | - | - | - |
| 1778111942 | 12.78° C | 49% | 1015.6 hPa | 0 mm | - | - | - |
| 1778111342 | 12.78° C | 52% | 1015.6 hPa | 0 mm | - | - | - |
| 1778110741 | 12.78° C | 50% | 1015.6 hPa | 0 mm | - | - | - |
| 1778110142 | 13.33° C | 52% | 1015.4 hPa | 0 mm | - | - | - |
| 1778109541 | 13.33° C | 50% | 1015.4 hPa | 0 mm | - | - | - |
| 1778108942 | 13.89° C | 48% | 1015.4 hPa | 0 mm | - | - | - |
| 1778108341 | 13.89° C | 50% | 1015.3 hPa | 0 mm | - | - | - |
| 1778107742 | 13.89° C | 47% | 1015.5 hPa | 0 mm | - | - | - |
| 1778107141 | 14.44° C | 47% | 1015.4 hPa | 0 mm | - | - | - |
| 1778106542 | 14.44° C | 49% | 1015.3 hPa | 0 mm | - | - | - |
| 1778105942 | 14.44° C | 47% | 1015.4 hPa | 0 mm | - | - | - |
| 1778105342 | 14.44° C | 47% | 1015.4 hPa | 0 mm | - | - | - |
| 1778104742 | 14.44° C | 46% | 1015.3 hPa | 0 mm | - | - | - |
| 1778104142 | 14.44° C | 48% | 1015.2 hPa | 0 mm | - | - | - |
| 1778103542 | 15° C | 46% | 1015.2 hPa | 0 mm | - | - | - |
| 1778102941 | 15° C | 44% | 1014.9 hPa | 0 mm | - | - | - |
| 1778102341 | 16.67° C | 43% | 1014.9 hPa | 0 mm | - | - | - |
| 1778101742 | 16.11° C | 42% | 1015 hPa | 0 mm | - | - | - |
| 1778101142 | 15.56° C | 44% | 1015.1 hPa | 0 mm | - | - | - |
| 1778100541 | 16.11° C | 46% | 1014.9 hPa | 0 mm | - | - | - |
| 1778099941 | 14.44° C | 46% | 1015.4 hPa | 0 mm | - | - | - |
| 1778099342 | 14.44° C | 49% | 1015.3 hPa | 0 mm | - | - | - |
| 1778098742 | 14.44° C | 50% | 1015.3 hPa | 0 mm | - | - | - |
* Rain latest hour (hover to see other rain measurements)
** Current wind speed in m/s (hover to see current wind gust speed)